createdAt,value
2023-05-06T00:01:32.920Z,80.82
2023-05-06T00:04:18.577Z,80.84
2023-05-06T00:07:03.871Z,80.13
2023-05-06T00:09:49.604Z,80.93
2023-05-06T00:12:38.089Z,81.23
2023-05-06T00:15:23.214Z,81.29
2023-05-06T00:18:08.552Z,80.97
2023-05-06T00:20:54.040Z,80.16
2023-05-06T00:23:39.460Z,79.98
2023-05-06T00:26:25.685Z,79.57
2023-05-06T00:29:12.089Z,79.55
2023-05-06T00:31:58.542Z,79.70
2023-05-06T00:34:44.283Z,79.21
2023-05-06T00:37:29.961Z,78.73
2023-05-06T00:40:15.267Z,78.72
2023-05-06T00:43:00.357Z,79.82
2023-05-06T00:45:46.053Z,80.11
2023-05-06T00:48:31.637Z,80.59
2023-05-06T00:51:17.610Z,80.49
2023-05-06T00:54:02.966Z,80.61
2023-05-06T00:56:48.562Z,81.17
2023-05-06T00:59:33.828Z,82.27
2023-05-06T01:02:19.110Z,81.58
2023-05-06T01:05:04.849Z,81.16
2023-05-06T01:08:32.445Z,80.91
2023-05-06T01:11:33.980Z,81.34
2023-05-06T01:14:47.538Z,82.32
2023-05-06T01:17:35.830Z,82.56
2023-05-06T01:20:21.968Z,83.45
2023-05-06T01:23:14.489Z,84.54
2023-05-06T01:25:59.854Z,84.56
2023-05-06T01:28:45.059Z,84.29
2023-05-06T01:31:39.939Z,85.19
2023-05-06T01:34:34.136Z,86.79
2023-05-06T01:37:30.345Z,86.10
2023-05-06T01:40:17.698Z,86.02
2023-05-06T01:43:05.655Z,86.09
2023-05-06T01:45:54.030Z,85.92
2023-05-06T01:48:39.850Z,86.02
2023-05-06T01:51:25.186Z,84.85
2023-05-06T01:54:11.134Z,84.53
2023-05-06T01:56:57.410Z,83.38
2023-05-06T01:59:42.952Z,82.60
2023-05-06T02:02:28.579Z,81.70
2023-05-06T02:05:13.996Z,81.26
2023-05-06T02:08:03.746Z,80.56
2023-05-06T02:10:49.055Z,80.77
2023-05-06T02:13:34.275Z,80.60
2023-05-06T02:16:19.848Z,80.63
2023-05-06T02:19:05.691Z,80.47
2023-05-06T02:21:51.244Z,80.41
2023-05-06T02:24:36.339Z,80.07
2023-05-06T02:27:21.633Z,79.90
2023-05-06T02:30:07.695Z,80.90
2023-05-06T02:32:53.106Z,81.52
2023-05-06T02:35:39.793Z,81.81
2023-05-06T02:38:25.785Z,81.55
2023-05-06T02:41:12.016Z,82.79
2023-05-06T02:43:57.246Z,82.98
2023-05-06T02:46:42.619Z,83.44
2023-05-06T02:49:29.232Z,83.77
2023-05-06T02:52:15.253Z,83.24
2023-05-06T02:55:01.822Z,83.19
2023-05-06T02:57:47.285Z,82.86
2023-05-06T03:00:32.405Z,83.25
2023-05-06T03:03:17.995Z,82.85
2023-05-06T03:06:03.616Z,82.53
2023-05-06T03:08:48.903Z,82.47
2023-05-06T03:11:34.108Z,82.78
2023-05-06T03:14:22.640Z,83.17
2023-05-06T03:17:08.379Z,84.40
2023-05-06T03:19:55.726Z,84.32
2023-05-06T03:22:41.563Z,84.39
2023-05-06T03:25:26.896Z,84.40
2023-05-06T03:28:13.507Z,84.56
2023-05-06T03:31:00.196Z,84.98
2023-05-06T03:33:45.679Z,85.43
2023-05-06T03:36:32.061Z,85.72
2023-05-06T03:39:18.085Z,86.05
2023-05-06T03:42:05.918Z,86.10
2023-05-06T03:44:52.368Z,85.73
2023-05-06T03:47:37.725Z,85.89
2023-05-06T03:50:25.511Z,86.06
2023-05-06T03:53:12.433Z,86.47
2023-05-06T03:55:59.983Z,85.98
2023-05-06T03:58:45.078Z,86.40
2023-05-06T04:01:30.930Z,87.49
2023-05-06T04:04:16.222Z,88.67
2023-05-06T04:07:02.441Z,89.04
2023-05-06T04:09:47.976Z,88.32
2023-05-06T04:12:34.431Z,88.07
2023-05-06T04:15:19.958Z,88.41
2023-05-06T04:18:05.850Z,87.89
2023-05-06T04:20:51.505Z,87.64
2023-05-06T04:23:37.096Z,87.24
2023-05-06T04:26:22.850Z,88.04
2023-05-06T04:29:08.977Z,87.27
2023-05-06T04:32:00.559Z,87.51
2023-05-06T04:34:48.901Z,87.02
2023-05-06T04:37:35.006Z,86.69
2023-05-06T04:40:27.322Z,85.93
2023-05-06T04:43:12.999Z,86.56
2023-05-06T04:45:58.530Z,86.70
2023-05-06T04:48:47.571Z,86.39
2023-05-06T04:51:34.601Z,85.98
2023-05-06T04:54:20.852Z,86.14
2023-05-06T04:57:06.388Z,85.99
2023-05-06T04:59:53.128Z,85.54
2023-05-06T05:02:38.471Z,85.45
2023-05-06T05:05:25.801Z,86.00
2023-05-06T05:08:12.124Z,86.49
2023-05-06T05:10:57.767Z,87.57
2023-05-06T05:13:44.851Z,87.36
2023-05-06T05:16:30.341Z,88.24
2023-05-06T05:19:16.334Z,89.10
2023-05-06T05:22:02.444Z,89.88
2023-05-06T05:24:50.176Z,92.31
2023-05-06T05:27:35.808Z,91.11
2023-05-06T05:30:21.313Z,87.17
2023-05-06T05:33:08.187Z,85.25
2023-05-06T05:35:56.011Z,85.15
2023-05-06T05:38:42.038Z,83.67
2023-05-06T05:41:27.724Z,83.26
2023-05-06T05:44:13.581Z,83.29
2023-05-06T05:46:59.740Z,83.28
2023-05-06T05:49:46.736Z,84.01
2023-05-06T05:52:35.636Z,85.06
2023-05-06T05:55:22.030Z,85.08
2023-05-06T05:58:10.419Z,85.32
2023-05-06T06:00:56.669Z,85.07
2023-05-06T06:03:42.429Z,82.47
2023-05-06T06:06:28.109Z,78.25
2023-05-06T06:09:13.479Z,76.84
2023-05-06T06:11:59.451Z,77.02
2023-05-06T06:14:47.941Z,78.43
2023-05-06T06:17:38.984Z,76.16
2023-05-06T06:20:25.513Z,75.16
2023-05-06T06:23:11.967Z,73.12
2023-05-06T06:25:57.211Z,73.24
2023-05-06T06:28:42.721Z,72.00
2023-05-06T06:31:28.165Z,73.27
2023-05-06T06:34:13.255Z,74.04
2023-05-06T06:36:59.008Z,75.27
2023-05-06T06:39:44.487Z,72.83
2023-05-06T06:42:29.835Z,74.81
2023-05-06T06:45:26.366Z,71.73
2023-05-06T06:48:11.881Z,75.20
2023-05-06T06:50:56.927Z,71.40
2023-05-06T06:53:42.135Z,70.21
2023-05-06T06:56:27.209Z,68.80
2023-05-06T06:59:12.484Z,69.26
2023-05-06T07:01:57.814Z,70.11
2023-05-06T07:04:43.048Z,67.77
2023-05-06T07:07:28.521Z,69.28
2023-05-06T07:10:13.988Z,67.91
2023-05-06T07:12:59.282Z,71.06
2023-05-06T07:15:44.523Z,71.78
2023-05-06T07:18:29.601Z,70.37
2023-05-06T07:21:15.778Z,69.76
2023-05-06T07:24:00.940Z,70.50
2023-05-06T07:26:47.174Z,70.26
2023-05-06T07:29:32.936Z,68.94
2023-05-06T07:32:18.382Z,68.04
2023-05-06T07:35:04.079Z,66.49
2023-05-06T07:37:49.510Z,65.56
2023-05-06T07:40:34.651Z,65.24
2023-05-06T07:43:22.012Z,66.51
2023-05-06T07:46:07.397Z,68.10
2023-05-06T07:48:52.754Z,66.47
2023-05-06T07:51:38.195Z,69.08
2023-05-06T07:54:23.677Z,66.95
2023-05-06T07:57:09.353Z,65.15
2023-05-06T07:59:54.821Z,65.22
2023-05-06T08:02:40.115Z,63.17
2023-05-06T08:05:25.246Z,64.86
2023-05-06T08:08:10.690Z,63.70
2023-05-06T08:10:58.636Z,65.21
2023-05-06T08:13:44.299Z,65.42
2023-05-06T08:16:29.641Z,63.30
2023-05-06T08:19:15.081Z,67.11
2023-05-06T08:22:00.834Z,64.08
2023-05-06T08:24:46.097Z,68.68
2023-05-06T08:27:31.576Z,64.67
2023-05-06T08:30:17.023Z,64.05
2023-05-06T08:33:02.780Z,62.58
2023-05-06T08:35:47.942Z,60.31
2023-05-06T08:38:33.498Z,60.76
2023-05-06T08:41:20.752Z,63.02
2023-05-06T08:44:07.943Z,61.50
2023-05-06T08:46:53.631Z,61.08
2023-05-06T08:49:40.430Z,62.64
2023-05-06T08:52:26.430Z,61.98
2023-05-06T08:55:12.363Z,56.99
2023-05-06T08:57:58.424Z,60.25
2023-05-06T09:00:44.564Z,58.50
2023-05-06T09:03:29.784Z,58.70
2023-05-06T09:06:15.288Z,58.82
2023-05-06T09:09:00.372Z,55.91
2023-05-06T09:11:45.994Z,55.50
2023-05-06T09:14:31.583Z,55.41
2023-05-06T09:17:21.844Z,53.97
2023-05-06T09:20:11.551Z,56.18
2023-05-06T09:22:57.295Z,55.85
2023-05-06T09:25:44.415Z,55.47
2023-05-06T09:28:33.045Z,56.83
2023-05-06T09:31:18.452Z,52.07
2023-05-06T09:34:04.059Z,56.42
2023-05-06T09:36:49.183Z,57.38
2023-05-06T09:39:34.392Z,53.30
2023-05-06T09:42:21.665Z,51.68
2023-05-06T09:45:08.692Z,51.54
2023-05-06T09:47:54.401Z,50.73
2023-05-06T09:50:39.748Z,51.68
2023-05-06T09:53:25.496Z,52.20
2023-05-06T09:56:12.113Z,52.85
2023-05-06T09:58:58.355Z,51.71
2023-05-06T10:01:43.910Z,50.28
2023-05-06T10:04:30.978Z,48.81
2023-05-06T10:07:20.522Z,50.05
2023-05-06T10:10:09.002Z,51.10
2023-05-06T10:12:55.443Z,51.08
2023-05-06T10:15:42.333Z,45.78
2023-05-06T10:18:31.870Z,48.12
2023-05-06T10:21:24.151Z,48.37
2023-05-06T10:24:13.358Z,45.88
2023-05-06T10:27:02.001Z,47.85
2023-05-06T10:29:49.099Z,48.00
2023-05-06T10:32:35.034Z,50.28
2023-05-06T10:35:42.199Z,48.41
2023-05-06T10:38:34.341Z,46.33
2023-05-06T10:41:20.284Z,46.48
2023-05-06T10:44:05.818Z,46.59
2023-05-06T10:46:59.723Z,45.73
2023-05-06T10:50:24.194Z,48.57
2023-05-06T10:53:09.730Z,46.04
2023-05-06T10:56:07.434Z,45.40
2023-05-06T10:58:54.739Z,47.68
2023-05-06T11:01:42.114Z,47.88
2023-05-06T11:04:28.317Z,47.26
2023-05-06T11:07:15.628Z,43.25
2023-05-06T11:10:03.882Z,43.29
2023-05-06T11:12:52.320Z,42.28
2023-05-06T11:15:40.708Z,43.67
2023-05-06T11:18:25.736Z,43.33
2023-05-06T11:21:12.227Z,45.17
2023-05-06T11:23:57.494Z,42.87
2023-05-06T11:26:43.372Z,40.66
2023-05-06T11:29:28.790Z,42.64
2023-05-06T11:32:23.163Z,41.97
2023-05-06T11:35:08.691Z,42.91
2023-05-06T11:37:54.443Z,43.24
2023-05-06T11:40:42.065Z,43.95
2023-05-06T11:43:27.330Z,42.91
2023-05-06T11:46:12.374Z,46.38
2023-05-06T11:48:57.539Z,42.87
2023-05-06T11:51:42.823Z,43.01
2023-05-06T11:54:28.228Z,43.59
2023-05-06T11:57:14.111Z,44.66
2023-05-06T11:59:59.497Z,41.27
2023-05-06T12:02:44.690Z,41.86
2023-05-06T12:05:30.582Z,42.39
2023-05-06T12:08:27.977Z,44.00
2023-05-06T12:11:14.032Z,40.59
2023-05-06T12:13:59.902Z,40.48
2023-05-06T12:16:45.427Z,41.20
2023-05-06T12:19:31.944Z,42.30
2023-05-06T12:22:26.285Z,42.15
2023-05-06T12:25:15.474Z,42.07
2023-05-06T12:28:01.119Z,43.12
2023-05-06T12:30:46.861Z,44.47
2023-05-06T12:33:44.660Z,38.94
2023-05-06T12:36:30.816Z,42.63
2023-05-06T12:39:16.111Z,39.80
2023-05-06T12:42:01.429Z,42.76
2023-05-06T12:44:46.673Z,41.00
2023-05-06T12:47:32.045Z,43.02
2023-05-06T12:50:37.635Z,41.43
2023-05-06T12:53:34.285Z,42.71
2023-05-06T12:56:20.852Z,40.04
2023-05-06T12:59:06.206Z,40.78
2023-05-06T13:01:51.493Z,40.35
2023-05-06T13:04:36.645Z,38.89
2023-05-06T13:07:22.196Z,39.32
2023-05-06T13:10:08.014Z,43.12
2023-05-06T13:12:53.564Z,43.35
2023-05-06T13:15:38.943Z,41.64
2023-05-06T13:18:24.505Z,43.76
2023-05-06T13:21:09.941Z,43.58
2023-05-06T13:23:55.387Z,42.85
2023-05-06T13:26:40.618Z,42.85
2023-05-06T13:29:25.914Z,42.07
2023-05-06T13:32:10.970Z,42.38
2023-05-06T13:34:56.568Z,40.02
2023-05-06T13:37:41.652Z,42.25
2023-05-06T13:40:26.902Z,38.98
2023-05-06T13:43:12.324Z,38.31
2023-05-06T13:45:57.735Z,38.59
2023-05-06T13:48:42.974Z,39.86
2023-05-06T13:51:28.169Z,41.36
2023-05-06T13:54:13.472Z,40.17
2023-05-06T13:56:58.582Z,39.76
2023-05-06T13:59:44.178Z,38.93
2023-05-06T14:02:30.305Z,39.80
2023-05-06T14:08:01.853Z,41.63
2023-05-06T14:10:47.135Z,40.62
2023-05-06T14:13:33.812Z,41.77
2023-05-06T14:16:19.291Z,40.33
2023-05-06T14:19:04.574Z,40.64
2023-05-06T14:21:50.004Z,40.85
2023-05-06T14:24:35.274Z,40.98
2023-05-06T14:27:20.874Z,39.19
2023-05-06T14:30:09.440Z,41.34
2023-05-06T14:32:55.351Z,41.49
2023-05-06T14:35:42.295Z,41.29
2023-05-06T14:38:27.464Z,42.00
2023-05-06T14:41:12.957Z,42.70
2023-05-06T14:43:58.449Z,42.38
2023-05-06T14:46:44.179Z,41.19
2023-05-06T14:49:29.908Z,40.94
2023-05-06T14:52:15.334Z,41.29
2023-05-06T14:55:00.380Z,42.96
2023-05-06T14:57:47.034Z,42.55
2023-05-06T15:00:32.600Z,42.55
2023-05-06T15:03:17.719Z,43.34
2023-05-06T15:06:03.105Z,43.53
2023-05-06T15:08:48.577Z,40.40
2023-05-06T15:11:34.099Z,40.48
2023-05-06T15:14:19.609Z,39.77
2023-05-06T15:17:05.375Z,42.86
2023-05-06T15:19:50.762Z,44.57
2023-05-06T15:22:38.684Z,43.50
2023-05-06T15:25:34.950Z,41.53
2023-05-06T15:28:24.230Z,41.87
2023-05-06T15:31:09.859Z,43.88
2023-05-06T15:33:55.214Z,41.86
2023-05-06T15:36:40.729Z,42.21
2023-05-06T15:39:26.032Z,42.57
2023-05-06T15:42:11.488Z,44.80
2023-05-06T15:44:57.678Z,43.83
2023-05-06T15:47:42.906Z,44.55
2023-05-06T15:50:33.415Z,46.04
2023-05-06T15:53:19.882Z,43.88
2023-05-06T15:58:52.896Z,43.25
2023-05-06T16:04:27.863Z,42.76
2023-05-06T16:07:13.376Z,44.44
2023-05-06T16:09:58.729Z,45.16
2023-05-06T16:12:43.938Z,44.45
2023-05-06T16:15:28.948Z,43.96
2023-05-06T16:18:14.779Z,43.54
2023-05-06T16:21:00.001Z,42.22
2023-05-06T16:23:45.450Z,42.20
2023-05-06T16:26:30.767Z,43.35
2023-05-06T16:29:16.232Z,44.35
2023-05-06T16:32:01.563Z,43.73
2023-05-06T16:34:47.290Z,45.44
2023-05-06T16:37:32.890Z,45.25
2023-05-06T16:40:20.026Z,44.99
2023-05-06T16:43:05.187Z,43.97
2023-05-06T16:45:50.637Z,47.37
2023-05-06T16:48:36.110Z,46.22
2023-05-06T16:51:21.509Z,46.54
2023-05-06T16:54:08.212Z,47.60
2023-05-06T16:56:53.362Z,47.32
2023-05-06T16:59:38.840Z,48.98
2023-05-06T17:02:24.010Z,50.47
2023-05-06T17:05:09.619Z,49.58
2023-05-06T17:07:55.180Z,50.42
2023-05-06T17:10:41.209Z,49.92
2023-05-06T17:13:26.442Z,50.96
2023-05-06T17:16:14.990Z,51.81
2023-05-06T17:19:00.021Z,52.50
2023-05-06T17:21:45.712Z,52.31
2023-05-06T17:24:30.892Z,52.25
2023-05-06T17:27:17.499Z,52.74
2023-05-06T17:30:03.125Z,52.91
2023-05-06T17:32:48.576Z,53.25
2023-05-06T17:35:34.032Z,54.05
2023-05-06T17:38:19.603Z,54.75
2023-05-06T17:41:05.415Z,55.30
2023-05-06T17:43:50.630Z,54.60
2023-05-06T17:46:35.917Z,55.89
2023-05-06T17:49:21.413Z,56.22
2023-05-06T17:52:06.547Z,56.81
2023-05-06T17:55:01.066Z,56.66
2023-05-06T17:57:51.139Z,57.31
2023-05-06T18:00:36.423Z,58.03
2023-05-06T18:03:22.722Z,57.87
2023-05-06T18:06:08.441Z,57.31
2023-05-06T18:08:53.800Z,57.55
2023-05-06T18:11:39.695Z,57.51
2023-05-06T18:14:25.256Z,58.39
2023-05-06T18:17:11.044Z,58.55
2023-05-06T18:19:56.120Z,58.34
2023-05-06T18:22:41.735Z,59.17
2023-05-06T18:25:26.967Z,59.54
2023-05-06T18:28:12.521Z,60.00
2023-05-06T18:30:58.006Z,59.21
2023-05-06T18:33:43.444Z,58.62
2023-05-06T18:36:28.679Z,58.46
2023-05-06T18:39:14.096Z,58.57
2023-05-06T18:41:59.276Z,58.96
2023-05-06T18:44:44.463Z,59.38
2023-05-06T18:47:29.705Z,60.66
2023-05-06T18:50:15.172Z,60.90
2023-05-06T18:53:00.315Z,61.49
2023-05-06T18:55:45.698Z,61.89
2023-05-06T18:58:31.215Z,62.78
2023-05-06T19:01:16.993Z,64.73
2023-05-06T19:04:02.467Z,65.14
2023-05-06T19:06:48.402Z,65.49
2023-05-06T19:09:33.486Z,66.28
2023-05-06T19:12:19.019Z,66.81
2023-05-06T19:15:05.143Z,68.02
2023-05-06T19:17:50.472Z,68.62
2023-05-06T19:20:35.820Z,69.86
2023-05-06T19:23:21.215Z,69.82
2023-05-06T19:26:07.091Z,70.70
2023-05-06T19:28:52.694Z,72.00
2023-05-06T19:31:38.179Z,73.04
2023-05-06T19:34:24.550Z,73.09
2023-05-06T19:37:10.021Z,73.60
2023-05-06T19:39:55.392Z,73.73
2023-05-06T19:42:40.573Z,74.09
2023-05-06T19:45:25.705Z,74.37
2023-05-06T19:48:11.061Z,74.71
2023-05-06T19:50:56.440Z,74.63
2023-05-06T19:53:41.819Z,75.02
2023-05-06T19:56:27.181Z,75.60
2023-05-06T19:59:12.282Z,76.96
2023-05-06T20:01:57.454Z,77.49
2023-05-06T20:04:45.922Z,77.73
2023-05-06T20:07:32.179Z,77.93
2023-05-06T20:10:17.671Z,77.50
2023-05-06T20:13:03.648Z,77.36
2023-05-06T20:15:48.960Z,77.53
2023-05-06T20:18:34.055Z,78.53
2023-05-06T20:21:19.479Z,79.45
2023-05-06T20:24:05.174Z,80.20
2023-05-06T20:26:50.839Z,79.81
2023-05-06T20:29:36.224Z,79.96
2023-05-06T20:32:21.455Z,80.18
2023-05-06T20:35:07.494Z,79.89
2023-05-06T20:37:52.787Z,79.35
2023-05-06T20:40:38.302Z,79.52
2023-05-06T20:43:23.482Z,80.91
2023-05-06T20:46:08.794Z,82.09
2023-05-06T20:48:53.875Z,81.88
2023-05-06T20:51:39.145Z,81.19
2023-05-06T20:54:24.342Z,81.61
2023-05-06T20:57:10.733Z,81.78
2023-05-06T20:59:56.345Z,82.38
2023-05-06T21:02:42.261Z,83.61
2023-05-06T21:05:27.963Z,84.17
2023-05-06T21:08:13.154Z,83.32
2023-05-06T21:10:58.690Z,83.84
2023-05-06T21:13:44.179Z,83.31
2023-05-06T21:16:29.706Z,83.73
2023-05-06T21:19:15.207Z,83.01
2023-05-06T21:22:00.785Z,82.19
2023-05-06T21:24:46.098Z,82.03
2023-05-06T21:27:31.755Z,82.17
2023-05-06T21:30:17.146Z,82.63
2023-05-06T21:33:03.654Z,82.96
2023-05-06T21:35:48.883Z,83.72
2023-05-06T21:38:34.051Z,82.92
2023-05-06T21:41:19.551Z,82.83
2023-05-06T21:44:05.668Z,82.44
2023-05-06T21:46:51.401Z,82.41
2023-05-06T21:49:36.851Z,82.91
2023-05-06T21:52:22.463Z,82.97
2023-05-06T21:55:08.461Z,82.13
2023-05-06T21:57:53.794Z,82.25
2023-05-06T22:00:39.071Z,84.07
2023-05-06T22:03:24.249Z,85.62
2023-05-06T22:06:09.476Z,86.13
2023-05-06T22:08:54.734Z,85.77
2023-05-06T22:11:40.260Z,86.03
2023-05-06T22:14:30.256Z,87.00
2023-05-06T22:17:23.089Z,87.14
2023-05-06T22:20:09.255Z,87.49
2023-05-06T22:22:54.851Z,87.92
2023-05-06T22:25:40.086Z,88.95
2023-05-06T22:28:25.338Z,90.09
2023-05-06T22:31:10.898Z,90.49
2023-05-06T22:33:56.433Z,90.92
2023-05-06T22:36:42.001Z,91.17
2023-05-06T22:39:27.138Z,90.80
2023-05-06T22:42:12.515Z,91.22
2023-05-06T22:44:57.810Z,91.12
2023-05-06T22:47:43.235Z,90.24
2023-05-06T22:50:28.372Z,90.33
2023-05-06T22:53:15.658Z,91.11
2023-05-06T22:56:01.150Z,90.10
2023-05-06T22:58:46.733Z,89.91
2023-05-06T23:01:32.547Z,89.54
2023-05-06T23:04:17.922Z,90.13
2023-05-06T23:07:03.196Z,90.41
2023-05-06T23:09:48.312Z,89.61
2023-05-06T23:12:34.324Z,90.11
2023-05-06T23:15:19.943Z,89.43
2023-05-06T23:18:05.654Z,89.77
2023-05-06T23:20:51.122Z,89.39
2023-05-06T23:23:36.464Z,89.82
2023-05-06T23:26:21.917Z,90.48
2023-05-06T23:29:07.344Z,90.18
2023-05-06T23:31:52.445Z,89.95
2023-05-06T23:34:37.912Z,90.33
2023-05-06T23:37:23.132Z,89.86
2023-05-06T23:40:08.818Z,90.57
2023-05-06T23:42:54.230Z,90.17
2023-05-06T23:45:39.349Z,90.56
2023-05-06T23:48:24.625Z,91.16
2023-05-06T23:51:10.077Z,92.04
2023-05-06T23:53:55.341Z,92.56
2023-05-06T23:56:40.592Z,93.54
2023-05-06T23:59:26.175Z,94.53
